sensor_id;sensor_type;location;lat;lon;timestamp;temperature;humidity
33594;DHT22;19920;52.242;20.940;2022-08-19T00:01:21;23.40;99.90
33594;DHT22;19920;52.242;20.940;2022-08-19T00:03:47;23.40;99.90
33594;DHT22;19920;52.242;20.940;2022-08-19T00:06:12;23.40;99.90
33594;DHT22;19920;52.242;20.940;2022-08-19T00:08:38;23.30;99.90
33594;DHT22;19920;52.242;20.940;2022-08-19T00:11:04;23.30;99.90
33594;DHT22;19920;52.242;20.940;2022-08-19T00:13:29;23.30;99.90
33594;DHT22;19920;52.242;20.940;2022-08-19T00:15:55;23.30;99.90
33594;DHT22;19920;52.242;20.940;2022-08-19T00:18:21;23.30;99.90
33594;DHT22;19920;52.242;20.940;2022-08-19T00:20:47;23.30;99.90
33594;DHT22;19920;52.242;20.940;2022-08-19T00:23:13;23.20;99.90
33594;DHT22;19920;52.242;20.940;2022-08-19T00:25:40;23.20;99.90
33594;DHT22;19920;52.242;20.940;2022-08-19T00:28:06;23.20;99.90
33594;DHT22;19920;52.242;20.940;2022-08-19T00:30:31;23.10;99.90
33594;DHT22;19920;52.242;20.940;2022-08-19T00:32:57;23.10;99.90
33594;DHT22;19920;52.242;20.940;2022-08-19T00:35:23;23.10;99.90
33594;DHT22;19920;52.242;20.940;2022-08-19T00:37:49;23.00;99.90
33594;DHT22;19920;52.242;20.940;2022-08-19T00:40:15;23.00;99.90
33594;DHT22;19920;52.242;20.940;2022-08-19T00:42:41;23.00;99.90
33594;DHT22;19920;52.242;20.940;2022-08-19T00:45:14;22.90;99.90
33594;DHT22;19920;52.242;20.940;2022-08-19T00:47:40;22.90;99.90
33594;DHT22;19920;52.242;20.940;2022-08-19T00:50:06;22.90;99.90
33594;DHT22;19920;52.242;20.940;2022-08-19T00:52:33;22.80;99.90
33594;DHT22;19920;52.242;20.940;2022-08-19T00:55:00;22.80;99.90
33594;DHT22;19920;52.242;20.940;2022-08-19T00:57:36;22.80;99.90
33594;DHT22;19920;52.242;20.940;2022-08-19T01:00:05;22.80;99.90
33594;DHT22;19920;52.242;20.940;2022-08-19T01:02:32;22.80;99.90
33594;DHT22;19920;52.242;20.940;2022-08-19T01:04:59;22.70;99.90
33594;DHT22;19920;52.242;20.940;2022-08-19T01:07:25;22.60;99.90
33594;DHT22;19920;52.242;20.940;2022-08-19T01:09:51;22.70;99.90
33594;DHT22;19920;52.242;20.940;2022-08-19T01:12:16;22.70;99.90
33594;DHT22;19920;52.242;20.940;2022-08-19T01:14:42;22.70;99.90
33594;DHT22;19920;52.242;20.940;2022-08-19T01:17:09;22.70;99.90
33594;DHT22;19920;52.242;20.940;2022-08-19T01:19:39;22.60;99.90
33594;DHT22;19920;52.242;20.940;2022-08-19T01:22:07;22.60;99.90
33594;DHT22;19920;52.242;20.940;2022-08-19T01:24:33;22.60;99.90
33594;DHT22;19920;52.242;20.940;2022-08-19T01:26:59;22.60;99.90
33594;DHT22;19920;52.242;20.940;2022-08-19T01:29:25;22.60;99.90
33594;DHT22;19920;52.242;20.940;2022-08-19T01:31:50;22.50;99.90
33594;DHT22;19920;52.242;20.940;2022-08-19T01:34:18;22.50;99.90
33594;DHT22;19920;52.242;20.940;2022-08-19T01:36:44;22.50;99.90
33594;DHT22;19920;52.242;20.940;2022-08-19T01:39:24;22.50;99.90
33594;DHT22;19920;52.242;20.940;2022-08-19T01:41:50;22.50;99.90
33594;DHT22;19920;52.242;20.940;2022-08-19T01:44:15;22.50;99.90
33594;DHT22;19920;52.242;20.940;2022-08-19T01:46:41;22.50;99.90
33594;DHT22;19920;52.242;20.940;2022-08-19T01:49:07;22.50;99.90
33594;DHT22;19920;52.242;20.940;2022-08-19T01:51:33;22.50;99.90
33594;DHT22;19920;52.242;20.940;2022-08-19T01:53:58;22.50;99.90
33594;DHT22;19920;52.242;20.940;2022-08-19T01:56:24;22.40;99.90
33594;DHT22;19920;52.242;20.940;2022-08-19T01:58:56;22.40;99.90
33594;DHT22;19920;52.242;20.940;2022-08-19T02:01:23;22.40;99.90
33594;DHT22;19920;52.242;20.940;2022-08-19T02:03:48;22.40;99.90
33594;DHT22;19920;52.242;20.940;2022-08-19T02:06:14;22.40;99.90
33594;DHT22;19920;52.242;20.940;2022-08-19T02:08:42;22.40;99.90
33594;DHT22;19920;52.242;20.940;2022-08-19T02:11:07;22.30;99.90
33594;DHT22;19920;52.242;20.940;2022-08-19T02:13:33;22.30;99.90
33594;DHT22;19920;52.242;20.940;2022-08-19T02:15:59;22.30;99.90
33594;DHT22;19920;52.242;20.940;2022-08-19T02:18:25;22.30;99.90
33594;DHT22;19920;52.242;20.940;2022-08-19T02:20:51;22.30;99.90
33594;DHT22;19920;52.242;20.940;2022-08-19T02:23:17;22.30;99.90
33594;DHT22;19920;52.242;20.940;2022-08-19T02:25:44;22.30;99.90
33594;DHT22;19920;52.242;20.940;2022-08-19T02:28:10;22.30;99.90
33594;DHT22;19920;52.242;20.940;2022-08-19T02:30:37;22.30;99.90
33594;DHT22;19920;52.242;20.940;2022-08-19T02:33:03;22.30;99.90
33594;DHT22;19920;52.242;20.940;2022-08-19T02:35:30;22.30;99.90
33594;DHT22;19920;52.242;20.940;2022-08-19T02:37:55;22.30;99.90
33594;DHT22;19920;52.242;20.940;2022-08-19T02:40:39;22.30;99.90
33594;DHT22;19920;52.242;20.940;2022-08-19T02:43:06;22.30;99.90
33594;DHT22;19920;52.242;20.940;2022-08-19T02:45:37;22.30;99.90
33594;DHT22;19920;52.242;20.940;2022-08-19T02:48:03;22.30;99.90
33594;DHT22;19920;52.242;20.940;2022-08-19T02:50:29;22.30;99.90
33594;DHT22;19920;52.242;20.940;2022-08-19T02:52:55;22.30;99.90
33594;DHT22;19920;52.242;20.940;2022-08-19T02:55:20;22.20;99.90
33594;DHT22;19920;52.242;20.940;2022-08-19T02:57:46;22.30;99.90
33594;DHT22;19920;52.242;20.940;2022-08-19T03:00:12;22.30;99.90
33594;DHT22;19920;52.242;20.940;2022-08-19T03:02:38;22.30;99.90
33594;DHT22;19920;52.242;20.940;2022-08-19T03:05:04;22.20;99.90
33594;DHT22;19920;52.242;20.940;2022-08-19T03:07:30;22.20;99.90
33594;DHT22;19920;52.242;20.940;2022-08-19T03:09:56;22.20;99.90
33594;DHT22;19920;52.242;20.940;2022-08-19T03:12:21;22.20;99.90
33594;DHT22;19920;52.242;20.940;2022-08-19T03:14:47;22.20;99.90
33594;DHT22;19920;52.242;20.940;2022-08-19T03:17:12;22.10;99.90
33594;DHT22;19920;52.242;20.940;2022-08-19T03:19:38;22.10;99.90
33594;DHT22;19920;52.242;20.940;2022-08-19T03:22:04;22.10;99.90
33594;DHT22;19920;52.242;20.940;2022-08-19T03:24:30;22.10;99.90
33594;DHT22;19920;52.242;20.940;2022-08-19T03:26:56;22.10;99.90
33594;DHT22;19920;52.242;20.940;2022-08-19T03:29:25;22.00;99.90
33594;DHT22;19920;52.242;20.940;2022-08-19T03:31:51;22.00;99.90
33594;DHT22;19920;52.242;20.940;2022-08-19T03:34:28;22.00;99.90
33594;DHT22;19920;52.242;20.940;2022-08-19T03:36:55;22.00;99.90
33594;DHT22;19920;52.242;20.940;2022-08-19T03:39:21;22.00;99.90
33594;DHT22;19920;52.242;20.940;2022-08-19T03:41:48;22.10;99.90
33594;DHT22;19920;52.242;20.940;2022-08-19T03:44:19;22.00;99.90
33594;DHT22;19920;52.242;20.940;2022-08-19T03:46:47;22.00;99.90
33594;DHT22;19920;52.242;20.940;2022-08-19T03:49:13;22.10;99.90
33594;DHT22;19920;52.242;20.940;2022-08-19T03:51:38;22.10;99.90
33594;DHT22;19920;52.242;20.940;2022-08-19T03:54:05;22.20;99.90
33594;DHT22;19920;52.242;20.940;2022-08-19T03:56:33;22.20;99.90
33594;DHT22;19920;52.242;20.940;2022-08-19T03:58:59;22.20;99.90
33594;DHT22;19920;52.242;20.940;2022-08-19T04:01:26;22.30;99.90
33594;DHT22;19920;52.242;20.940;2022-08-19T04:03:52;22.30;99.90
33594;DHT22;19920;52.242;20.940;2022-08-19T04:06:22;22.30;99.90
33594;DHT22;19920;52.242;20.940;2022-08-19T04:08:48;22.30;99.90
33594;DHT22;19920;52.242;20.940;2022-08-19T04:11:17;22.30;99.90
33594;DHT22;19920;52.242;20.940;2022-08-19T04:13:43;22.30;99.90
33594;DHT22;19920;52.242;20.940;2022-08-19T04:16:09;22.40;99.90
33594;DHT22;19920;52.242;20.940;2022-08-19T04:18:35;22.40;99.90
33594;DHT22;19920;52.242;20.940;2022-08-19T04:21:01;22.40;99.90
33594;DHT22;19920;52.242;20.940;2022-08-19T04:23:27;22.50;99.90
33594;DHT22;19920;52.242;20.940;2022-08-19T04:25:53;22.50;99.90
33594;DHT22;19920;52.242;20.940;2022-08-19T04:28:19;22.60;99.90
33594;DHT22;19920;52.242;20.940;2022-08-19T04:30:46;22.60;99.90
33594;DHT22;19920;52.242;20.940;2022-08-19T04:33:13;22.70;99.90
33594;DHT22;19920;52.242;20.940;2022-08-19T04:35:39;22.80;99.90
33594;DHT22;19920;52.242;20.940;2022-08-19T04:38:05;22.90;99.90
33594;DHT22;19920;52.242;20.940;2022-08-19T04:40:30;23.00;99.90
33594;DHT22;19920;52.242;20.940;2022-08-19T04:43:15;23.00;99.90
33594;DHT22;19920;52.242;20.940;2022-08-19T04:45:42;23.10;99.90
33594;DHT22;19920;52.242;20.940;2022-08-19T04:48:08;23.20;99.90
33594;DHT22;19920;52.242;20.940;2022-08-19T04:50:35;23.30;99.90
33594;DHT22;19920;52.242;20.940;2022-08-19T04:53:00;23.40;99.90
33594;DHT22;19920;52.242;20.940;2022-08-19T04:55:26;23.50;99.90
33594;DHT22;19920;52.242;20.940;2022-08-19T04:57:51;23.60;99.90
33594;DHT22;19920;52.242;20.940;2022-08-19T05:00:17;23.60;99.90
33594;DHT22;19920;52.242;20.940;2022-08-19T05:02:43;23.70;99.90
33594;DHT22;19920;52.242;20.940;2022-08-19T05:05:08;23.80;99.90
33594;DHT22;19920;52.242;20.940;2022-08-19T05:07:34;23.80;99.90
33594;DHT22;19920;52.242;20.940;2022-08-19T05:09:59;23.80;99.90
33594;DHT22;19920;52.242;20.940;2022-08-19T05:12:25;23.80;99.90
33594;DHT22;19920;52.242;20.940;2022-08-19T05:14:52;23.70;99.90
33594;DHT22;19920;52.242;20.940;2022-08-19T05:17:17;23.70;99.90
33594;DHT22;19920;52.242;20.940;2022-08-19T05:19:43;23.70;99.90
33594;DHT22;19920;52.242;20.940;2022-08-19T05:22:27;23.70;99.90
33594;DHT22;19920;52.242;20.940;2022-08-19T05:25:02;23.60;99.90
33594;DHT22;19920;52.242;20.940;2022-08-19T05:27:28;23.60;99.90
33594;DHT22;19920;52.242;20.940;2022-08-19T05:29:53;23.60;99.90
33594;DHT22;19920;52.242;20.940;2022-08-19T05:32:19;23.60;99.90
33594;DHT22;19920;52.242;20.940;2022-08-19T05:34:45;23.70;99.90
33594;DHT22;19920;52.242;20.940;2022-08-19T05:37:10;23.80;99.90
33594;DHT22;19920;52.242;20.940;2022-08-19T05:39:36;23.80;99.90
33594;DHT22;19920;52.242;20.940;2022-08-19T05:42:04;23.90;99.90
33594;DHT22;19920;52.242;20.940;2022-08-19T05:44:31;24.00;99.90
33594;DHT22;19920;52.242;20.940;2022-08-19T05:46:59;24.00;99.90
33594;DHT22;19920;52.242;20.940;2022-08-19T05:49:26;24.10;99.90
33594;DHT22;19920;52.242;20.940;2022-08-19T05:51:52;24.10;99.90
33594;DHT22;19920;52.242;20.940;2022-08-19T05:54:18;24.20;99.90
33594;DHT22;19920;52.242;20.940;2022-08-19T05:56:44;24.20;99.90
33594;DHT22;19920;52.242;20.940;2022-08-19T05:59:13;24.30;99.90
33594;DHT22;19920;52.242;20.940;2022-08-19T06:01:40;24.30;99.90
33594;DHT22;19920;52.242;20.940;2022-08-19T06:04:06;24.40;99.90
33594;DHT22;19920;52.242;20.940;2022-08-19T06:06:32;24.50;99.90
33594;DHT22;19920;52.242;20.940;2022-08-19T06:09:06;24.50;99.90
33594;DHT22;19920;52.242;20.940;2022-08-19T06:11:42;24.60;99.90
33594;DHT22;19920;52.242;20.940;2022-08-19T06:14:10;24.70;99.90
33594;DHT22;19920;52.242;20.940;2022-08-19T06:16:37;24.80;99.90
33594;DHT22;19920;52.242;20.940;2022-08-19T06:19:04;24.90;99.90
33594;DHT22;19920;52.242;20.940;2022-08-19T06:21:32;24.90;99.90
33594;DHT22;19920;52.242;20.940;2022-08-19T06:23:58;25.00;99.90
33594;DHT22;19920;52.242;20.940;2022-08-19T06:26:23;25.10;99.90
33594;DHT22;19920;52.242;20.940;2022-08-19T06:28:50;25.10;99.90
33594;DHT22;19920;52.242;20.940;2022-08-19T06:31:20;25.00;99.90
33594;DHT22;19920;52.242;20.940;2022-08-19T06:33:46;25.10;99.90
33594;DHT22;19920;52.242;20.940;2022-08-19T06:38:43;25.20;99.90
33594;DHT22;19920;52.242;20.940;2022-08-19T06:41:09;25.30;99.90
33594;DHT22;19920;52.242;20.940;2022-08-19T06:43:35;25.40;99.90
33594;DHT22;19920;52.242;20.940;2022-08-19T06:46:01;25.60;99.90
33594;DHT22;19920;52.242;20.940;2022-08-19T06:48:29;25.70;99.90
33594;DHT22;19920;52.242;20.940;2022-08-19T06:50:54;25.80;99.90
33594;DHT22;19920;52.242;20.940;2022-08-19T06:53:21;25.80;99.90
33594;DHT22;19920;52.242;20.940;2022-08-19T06:55:46;25.80;99.90
33594;DHT22;19920;52.242;20.940;2022-08-19T06:58:12;25.70;99.90
33594;DHT22;19920;52.242;20.940;2022-08-19T07:00:38;25.70;99.90
33594;DHT22;19920;52.242;20.940;2022-08-19T07:03:04;25.80;99.90
33594;DHT22;19920;52.242;20.940;2022-08-19T07:05:29;25.80;99.90
33594;DHT22;19920;52.242;20.940;2022-08-19T07:07:55;25.90;99.90
33594;DHT22;19920;52.242;20.940;2022-08-19T07:10:22;25.90;99.90
33594;DHT22;19920;52.242;20.940;2022-08-19T07:12:47;25.90;99.90
33594;DHT22;19920;52.242;20.940;2022-08-19T07:15:15;25.80;99.90
33594;DHT22;19920;52.242;20.940;2022-08-19T07:17:41;25.90;99.90
33594;DHT22;19920;52.242;20.940;2022-08-19T07:20:09;25.90;99.90
33594;DHT22;19920;52.242;20.940;2022-08-19T07:22:34;25.90;99.90
33594;DHT22;19920;52.242;20.940;2022-08-19T07:25:00;26.00;99.90
33594;DHT22;19920;52.242;20.940;2022-08-19T07:27:28;26.20;99.90
33594;DHT22;19920;52.242;20.940;2022-08-19T07:29:53;26.30;99.90
33594;DHT22;19920;52.242;20.940;2022-08-19T07:32:19;26.30;99.90
33594;DHT22;19920;52.242;20.940;2022-08-19T07:34:44;26.40;99.90
33594;DHT22;19920;52.242;20.940;2022-08-19T07:37:10;26.40;99.90
33594;DHT22;19920;52.242;20.940;2022-08-19T07:39:36;26.50;99.90
33594;DHT22;19920;52.242;20.940;2022-08-19T07:42:04;26.50;99.90
33594;DHT22;19920;52.242;20.940;2022-08-19T07:44:32;26.60;99.90
33594;DHT22;19920;52.242;20.940;2022-08-19T07:46:59;26.70;99.90
33594;DHT22;19920;52.242;20.940;2022-08-19T07:49:25;26.70;99.90
33594;DHT22;19920;52.242;20.940;2022-08-19T07:54:17;26.90;99.90
33594;DHT22;19920;52.242;20.940;2022-08-19T07:56:43;27.00;99.90
33594;DHT22;19920;52.242;20.940;2022-08-19T07:59:09;27.00;99.90
33594;DHT22;19920;52.242;20.940;2022-08-19T08:01:34;27.00;99.90
33594;DHT22;19920;52.242;20.940;2022-08-19T08:04:00;27.00;99.90
33594;DHT22;19920;52.242;20.940;2022-08-19T08:06:44;26.90;99.90
33594;DHT22;19920;52.242;20.940;2022-08-19T08:09:30;26.90;99.90
33594;DHT22;19920;52.242;20.940;2022-08-19T08:11:58;26.90;99.90
33594;DHT22;19920;52.242;20.940;2022-08-19T08:14:25;27.00;99.90
33594;DHT22;19920;52.242;20.940;2022-08-19T08:16:52;27.00;99.90
33594;DHT22;19920;52.242;20.940;2022-08-19T08:19:18;27.00;99.90
33594;DHT22;19920;52.242;20.940;2022-08-19T08:21:45;27.10;99.90
33594;DHT22;19920;52.242;20.940;2022-08-19T08:24:11;27.10;99.90
33594;DHT22;19920;52.242;20.940;2022-08-19T08:26:37;27.20;99.90
33594;DHT22;19920;52.242;20.940;2022-08-19T08:29:03;27.30;99.90
33594;DHT22;19920;52.242;20.940;2022-08-19T08:31:28;27.40;99.90
33594;DHT22;19920;52.242;20.940;2022-08-19T08:33:54;27.50;99.90
33594;DHT22;19920;52.242;20.940;2022-08-19T08:36:20;27.70;99.90
33594;DHT22;19920;52.242;20.940;2022-08-19T08:38:46;27.80;99.90
33594;DHT22;19920;52.242;20.940;2022-08-19T08:43:55;28.00;99.90
33594;DHT22;19920;52.242;20.940;2022-08-19T08:51:20;28.10;99.90
33594;DHT22;19920;52.242;20.940;2022-08-19T08:53:49;28.10;99.90
33594;DHT22;19920;52.242;20.940;2022-08-19T08:56:15;28.20;99.90
33594;DHT22;19920;52.242;20.940;2022-08-19T09:01:16;28.30;99.90
33594;DHT22;19920;52.242;20.940;2022-08-19T09:03:42;28.40;99.90
33594;DHT22;19920;52.242;20.940;2022-08-19T09:08:43;28.50;99.90
33594;DHT22;19920;52.242;20.940;2022-08-19T09:11:12;28.60;99.90
33594;DHT22;19920;52.242;20.940;2022-08-19T09:16:23;28.80;99.90
33594;DHT22;19920;52.242;20.940;2022-08-19T09:18:53;28.90;99.90
33594;DHT22;19920;52.242;20.940;2022-08-19T09:21:20;28.90;99.90
33594;DHT22;19920;52.242;20.940;2022-08-19T09:23:46;28.90;99.90
33594;DHT22;19920;52.242;20.940;2022-08-19T09:26:13;29.00;99.90
33594;DHT22;19920;52.242;20.940;2022-08-19T09:28:40;29.10;99.90
33594;DHT22;19920;52.242;20.940;2022-08-19T09:31:09;29.20;99.90
33594;DHT22;19920;52.242;20.940;2022-08-19T09:33:35;29.20;99.90
33594;DHT22;19920;52.242;20.940;2022-08-19T09:36:05;29.20;99.90
33594;DHT22;19920;52.242;20.940;2022-08-19T09:38:31;29.30;99.90
33594;DHT22;19920;52.242;20.940;2022-08-19T09:41:01;29.30;99.90
33594;DHT22;19920;52.242;20.940;2022-08-19T09:43:27;29.30;99.90
33594;DHT22;19920;52.242;20.940;2022-08-19T09:45:53;29.40;99.90
33594;DHT22;19920;52.242;20.940;2022-08-19T09:48:18;29.50;99.90
33594;DHT22;19920;52.242;20.940;2022-08-19T09:50:45;29.60;99.90
33594;DHT22;19920;52.242;20.940;2022-08-19T09:53:10;29.60;99.90
33594;DHT22;19920;52.242;20.940;2022-08-19T09:55:41;29.80;99.90
33594;DHT22;19920;52.242;20.940;2022-08-19T09:58:06;29.80;99.90
33594;DHT22;19920;52.242;20.940;2022-08-19T10:00:32;30.00;99.90
33594;DHT22;19920;52.242;20.940;2022-08-19T10:02:57;30.00;99.90
33594;DHT22;19920;52.242;20.940;2022-08-19T10:05:23;30.10;99.90
33594;DHT22;19920;52.242;20.940;2022-08-19T10:08:07;30.20;99.90
33594;DHT22;19920;52.242;20.940;2022-08-19T10:10:34;30.30;99.90
33594;DHT22;19920;52.242;20.940;2022-08-19T10:13:00;30.40;99.90
33594;DHT22;19920;52.242;20.940;2022-08-19T10:15:26;30.50;99.90
33594;DHT22;19920;52.242;20.940;2022-08-19T10:17:51;30.50;99.90
33594;DHT22;19920;52.242;20.940;2022-08-19T10:20:17;30.60;99.90
33594;DHT22;19920;52.242;20.940;2022-08-19T10:22:42;30.70;99.90
33594;DHT22;19920;52.242;20.940;2022-08-19T10:25:10;30.80;99.90
33594;DHT22;19920;52.242;20.940;2022-08-19T10:27:37;30.80;99.90
33594;DHT22;19920;52.242;20.940;2022-08-19T10:30:03;30.90;99.90
33594;DHT22;19920;52.242;20.940;2022-08-19T10:32:29;31.00;99.90
33594;DHT22;19920;52.242;20.940;2022-08-19T10:34:55;31.10;99.90
33594;DHT22;19920;52.242;20.940;2022-08-19T10:37:21;31.10;99.90
33594;DHT22;19920;52.242;20.940;2022-08-19T10:39:47;31.20;99.90
33594;DHT22;19920;52.242;20.940;2022-08-19T10:42:15;31.30;99.90
33594;DHT22;19920;52.242;20.940;2022-08-19T10:44:42;31.30;99.90
33594;DHT22;19920;52.242;20.940;2022-08-19T10:47:07;31.40;99.90
33594;DHT22;19920;52.242;20.940;2022-08-19T10:49:33;31.40;99.90
33594;DHT22;19920;52.242;20.940;2022-08-19T10:52:19;31.50;99.90
33594;DHT22;19920;52.242;20.940;2022-08-19T10:55:03;31.50;99.90
33594;DHT22;19920;52.242;20.940;2022-08-19T10:57:48;31.60;99.90
33594;DHT22;19920;52.242;20.940;2022-08-19T11:00:13;31.70;99.90
33594;DHT22;19920;52.242;20.940;2022-08-19T11:02:39;31.80;99.90
33594;DHT22;19920;52.242;20.940;2022-08-19T11:05:05;31.90;99.90
33594;DHT22;19920;52.242;20.940;2022-08-19T11:07:32;32.00;99.90
33594;DHT22;19920;52.242;20.940;2022-08-19T11:09:57;32.00;99.90
33594;DHT22;19920;52.242;20.940;2022-08-19T11:12:23;32.00;99.90
33594;DHT22;19920;52.242;20.940;2022-08-19T11:14:49;32.00;99.90
33594;DHT22;19920;52.242;20.940;2022-08-19T11:17:15;32.10;99.90
33594;DHT22;19920;52.242;20.940;2022-08-19T11:19:41;32.20;99.90
33594;DHT22;19920;52.242;20.940;2022-08-19T11:22:08;32.30;99.90
33594;DHT22;19920;52.242;20.940;2022-08-19T11:24:35;32.40;99.90
33594;DHT22;19920;52.242;20.940;2022-08-19T11:27:02;32.40;99.90
33594;DHT22;19920;52.242;20.940;2022-08-19T11:29:29;32.30;99.90
33594;DHT22;19920;52.242;20.940;2022-08-19T11:31:55;32.30;99.90
33594;DHT22;19920;52.242;20.940;2022-08-19T11:34:22;32.30;99.90
33594;DHT22;19920;52.242;20.940;2022-08-19T11:36:48;32.20;99.90
33594;DHT22;19920;52.242;20.940;2022-08-19T11:39:16;32.40;99.90
33594;DHT22;19920;52.242;20.940;2022-08-19T11:41:42;32.40;99.90
33594;DHT22;19920;52.242;20.940;2022-08-19T11:44:07;32.50;99.90
33594;DHT22;19920;52.242;20.940;2022-08-19T11:46:33;32.60;99.90
33594;DHT22;19920;52.242;20.940;2022-08-19T11:48:59;32.60;99.90
33594;DHT22;19920;52.242;20.940;2022-08-19T11:51:26;32.70;99.90
33594;DHT22;19920;52.242;20.940;2022-08-19T11:53:53;32.80;99.90
33594;DHT22;19920;52.242;20.940;2022-08-19T11:56:19;32.90;99.90
33594;DHT22;19920;52.242;20.940;2022-08-19T11:58:45;33.00;99.90
33594;DHT22;19920;52.242;20.940;2022-08-19T12:01:11;33.10;99.90
33594;DHT22;19920;52.242;20.940;2022-08-19T12:03:38;33.20;99.90
33594;DHT22;19920;52.242;20.940;2022-08-19T12:06:07;33.10;99.90
33594;DHT22;19920;52.242;20.940;2022-08-19T12:08:33;33.30;99.90
33594;DHT22;19920;52.242;20.940;2022-08-19T12:10:59;33.30;99.90
33594;DHT22;19920;52.242;20.940;2022-08-19T12:13:27;33.40;99.90
33594;DHT22;19920;52.242;20.940;2022-08-19T12:15:53;33.50;99.90
33594;DHT22;19920;52.242;20.940;2022-08-19T12:18:19;33.20;99.90
33594;DHT22;19920;52.242;20.940;2022-08-19T12:20:45;33.50;99.90
33594;DHT22;19920;52.242;20.940;2022-08-19T12:23:11;33.40;99.90
33594;DHT22;19920;52.242;20.940;2022-08-19T12:25:37;33.60;99.90
33594;DHT22;19920;52.242;20.940;2022-08-19T12:28:08;33.70;99.90
33594;DHT22;19920;52.242;20.940;2022-08-19T12:30:37;33.90;99.90
33594;DHT22;19920;52.242;20.940;2022-08-19T12:33:02;33.90;99.90
33594;DHT22;19920;52.242;20.940;2022-08-19T12:35:28;33.90;99.90
33594;DHT22;19920;52.242;20.940;2022-08-19T12:37:55;34.00;99.90
33594;DHT22;19920;52.242;20.940;2022-08-19T12:40:21;33.90;99.90
33594;DHT22;19920;52.242;20.940;2022-08-19T12:42:46;33.80;99.90
33594;DHT22;19920;52.242;20.940;2022-08-19T12:45:14;33.80;99.90
33594;DHT22;19920;52.242;20.940;2022-08-19T12:47:40;33.80;99.90
33594;DHT22;19920;52.242;20.940;2022-08-19T12:50:06;34.00;99.90
33594;DHT22;19920;52.242;20.940;2022-08-19T12:52:34;34.40;99.90
33594;DHT22;19920;52.242;20.940;2022-08-19T12:55:02;34.50;99.90
33594;DHT22;19920;52.242;20.940;2022-08-19T12:57:28;34.70;99.90
33594;DHT22;19920;52.242;20.940;2022-08-19T12:59:54;34.80;99.90
33594;DHT22;19920;52.242;20.940;2022-08-19T13:02:19;34.70;99.90
33594;DHT22;19920;52.242;20.940;2022-08-19T13:04:45;34.70;99.90
33594;DHT22;19920;52.242;20.940;2022-08-19T13:07:11;34.90;99.90
33594;DHT22;19920;52.242;20.940;2022-08-19T13:09:36;35.00;99.90
33594;DHT22;19920;52.242;20.940;2022-08-19T13:12:02;35.20;99.90
33594;DHT22;19920;52.242;20.940;2022-08-19T13:14:33;35.10;99.90
33594;DHT22;19920;52.242;20.940;2022-08-19T13:16:58;35.00;99.90
33594;DHT22;19920;52.242;20.940;2022-08-19T13:19:24;34.80;99.90
33594;DHT22;19920;52.242;20.940;2022-08-19T13:21:50;34.80;99.90
33594;DHT22;19920;52.242;20.940;2022-08-19T13:24:15;34.70;99.90
33594;DHT22;19920;52.242;20.940;2022-08-19T13:26:41;34.60;99.90
33594;DHT22;19920;52.242;20.940;2022-08-19T13:29:06;34.40;99.90
33594;DHT22;19920;52.242;20.940;2022-08-19T13:31:51;34.30;99.90
33594;DHT22;19920;52.242;20.940;2022-08-19T13:34:35;34.40;99.90
33594;DHT22;19920;52.242;20.940;2022-08-19T13:37:03;34.70;99.90
33594;DHT22;19920;52.242;20.940;2022-08-19T13:39:29;35.10;99.90
33594;DHT22;19920;52.242;20.940;2022-08-19T13:41:55;35.20;99.90
33594;DHT22;19920;52.242;20.940;2022-08-19T13:44:20;35.20;99.90
33594;DHT22;19920;52.242;20.940;2022-08-19T13:46:46;35.20;99.90
33594;DHT22;19920;52.242;20.940;2022-08-19T13:49:14;35.10;99.90
33594;DHT22;19920;52.242;20.940;2022-08-19T13:51:41;35.30;99.90
33594;DHT22;19920;52.242;20.940;2022-08-19T13:54:07;35.20;99.90
33594;DHT22;19920;52.242;20.940;2022-08-19T13:56:34;35.10;99.90
33594;DHT22;19920;52.242;20.940;2022-08-19T13:58:59;35.10;99.90
33594;DHT22;19920;52.242;20.940;2022-08-19T14:01:25;35.20;99.90
33594;DHT22;19920;52.242;20.940;2022-08-19T14:03:51;35.30;99.90
33594;DHT22;19920;52.242;20.940;2022-08-19T14:06:18;35.50;99.90
33594;DHT22;19920;52.242;20.940;2022-08-19T14:08:44;35.80;99.90
33594;DHT22;19920;52.242;20.940;2022-08-19T14:11:10;36.10;99.90
33594;DHT22;19920;52.242;20.940;2022-08-19T14:13:35;36.70;99.90
33594;DHT22;19920;52.242;20.940;2022-08-19T14:16:05;36.80;99.90
33594;DHT22;19920;52.242;20.940;2022-08-19T14:18:32;36.80;99.90
33594;DHT22;19920;52.242;20.940;2022-08-19T14:20:57;36.90;99.90
33594;DHT22;19920;52.242;20.940;2022-08-19T14:23:23;36.80;99.90
33594;DHT22;19920;52.242;20.940;2022-08-19T14:25:49;36.60;99.90
33594;DHT22;19920;52.242;20.940;2022-08-19T14:28:14;36.20;99.90
33594;DHT22;19920;52.242;20.940;2022-08-19T14:30:40;36.10;99.90
33594;DHT22;19920;52.242;20.940;2022-08-19T14:33:05;35.80;99.90
33594;DHT22;19920;52.242;20.940;2022-08-19T14:35:32;35.80;99.90
33594;DHT22;19920;52.242;20.940;2022-08-19T14:38:02;35.80;99.90
33594;DHT22;19920;52.242;20.940;2022-08-19T14:40:28;35.90;99.90
33594;DHT22;19920;52.242;20.940;2022-08-19T14:42:56;35.80;99.90
33594;DHT22;19920;52.242;20.940;2022-08-19T14:45:25;35.90;99.90
33594;DHT22;19920;52.242;20.940;2022-08-19T14:47:50;36.10;99.90
33594;DHT22;19920;52.242;20.940;2022-08-19T14:50:16;36.30;99.90
33594;DHT22;19920;52.242;20.940;2022-08-19T14:52:41;36.40;99.90
33594;DHT22;19920;52.242;20.940;2022-08-19T14:55:08;36.80;99.90
33594;DHT22;19920;52.242;20.940;2022-08-19T14:57:34;37.10;99.90
33594;DHT22;19920;52.242;20.940;2022-08-19T14:59:59;37.20;99.90
33594;DHT22;19920;52.242;20.940;2022-08-19T15:02:25;37.20;99.90
33594;DHT22;19920;52.242;20.940;2022-08-19T15:04:50;37.30;99.90
33594;DHT22;19920;52.242;20.940;2022-08-19T15:07:16;38.00;99.90
33594;DHT22;19920;52.242;20.940;2022-08-19T15:09:42;38.20;99.60
33594;DHT22;19920;52.242;20.940;2022-08-19T15:12:07;37.80;99.30
33594;DHT22;19920;52.242;20.940;2022-08-19T15:14:35;37.90;99.80
33594;DHT22;19920;52.242;20.940;2022-08-19T15:17:02;38.10;99.70
33594;DHT22;19920;52.242;20.940;2022-08-19T15:19:28;38.40;98.70
33594;DHT22;19920;52.242;20.940;2022-08-19T15:21:54;38.80;97.40
33594;DHT22;19920;52.242;20.940;2022-08-19T15:24:20;38.70;97.20
33594;DHT22;19920;52.242;20.940;2022-08-19T15:26:45;38.50;97.70
33594;DHT22;19920;52.242;20.940;2022-08-19T15:29:11;38.40;96.80
33594;DHT22;19920;52.242;20.940;2022-08-19T15:31:39;38.80;96.40
33594;DHT22;19920;52.242;20.940;2022-08-19T15:34:05;38.80;96.30